Time;durP1;ratioP1;P1;durP2;ratioP2;P2;SDS_P1;SDS_P2;PMS_P1;PMS_P2;Temp;Humidity;BMP_temperature;BMP_pressure;BME280_temperature;BME280_humidity;BME280_pressure;Samples;Min_cycle;Max_cycle;Signal;HPM_P1;HPM_P2
2022/03/19 00:00:15;;;;;;;0.10;0.10;;;;;;;20.69;34.46;103924.59;5132446;27;20145;-31
2022/03/19 00:02:41;;;;;;;0.10;0.10;;;;;;;20.68;34.36;103922.88;5132997;27;20547;-31
2022/03/19 00:05:08;;;;;;;0.15;0.15;;;;;;;20.68;34.23;103918.22;5137886;27;20042;-32
2022/03/19 00:07:35;;;;;;;0.20;0.20;;;;;;;20.68;34.43;103921.00;5131110;27;20067;-31
2022/03/19 00:10:01;;;;;;;0.10;0.10;;;;;;;20.68;34.31;103918.22;5113757;27;20101;-32
2022/03/19 00:12:27;;;;;;;0.20;0.20;;;;;;;20.68;34.31;103923.75;5128493;27;20513;-32
2022/03/19 00:14:52;;;;;;;0.20;0.20;;;;;;;20.67;34.19;103916.50;5128942;27;20047;-34
2022/03/19 00:17:18;;;;;;;0.20;0.20;;;;;;;20.69;34.27;103916.28;5130377;27;20616;-33
2022/03/19 00:19:44;;;;;;;0.20;0.20;;;;;;;20.68;34.36;103920.09;5130126;27;20047;-32
2022/03/19 00:22:10;;;;;;;0.15;0.15;;;;;;;20.67;34.20;103919.25;5130855;27;20043;-31
2022/03/19 00:24:36;;;;;;;0.20;0.20;;;;;;;20.68;34.34;103915.44;5128777;27;20035;-31
2022/03/19 00:27:02;;;;;;;0.20;0.20;;;;;;;20.68;34.26;103918.22;5127037;27;20050;-33
2022/03/19 00:29:28;;;;;;;0.10;0.10;;;;;;;20.68;34.17;103914.56;5132270;27;20051;-34
2022/03/19 00:31:53;;;;;;;0.10;0.10;;;;;;;20.67;34.65;103910.09;5131773;27;20035;-37
2022/03/19 00:34:19;;;;;;;0.10;0.10;;;;;;;20.67;34.34;103910.09;5130104;27;20417;-33
2022/03/19 00:36:45;;;;;;;0.20;0.20;;;;;;;20.67;34.32;103913.72;5136529;27;20047;-31
2022/03/19 00:39:11;;;;;;;0.20;0.20;;;;;;;20.67;34.43;103908.19;5129009;27;20043;-31
2022/03/19 00:41:36;;;;;;;0.20;0.20;;;;;;;20.67;34.33;103916.50;5129728;27;20484;-34
2022/03/19 00:44:03;;;;;;;0.20;0.20;;;;;;;20.66;34.31;103903.72;5132491;27;20051;-35
2022/03/19 00:46:28;;;;;;;0.10;0.10;;;;;;;20.66;34.46;103900.94;5127122;27;21362;-31
2022/03/19 00:48:54;;;;;;;0.17;0.17;;;;;;;20.67;34.37;103904.56;5130901;27;20390;-34
2022/03/19 00:51:20;;;;;;;0.20;0.20;;;;;;;20.65;34.49;103902.03;5127995;27;20074;-32
2022/03/19 00:53:46;;;;;;;0.10;0.10;;;;;;;20.66;34.56;103902.88;5128301;27;20043;-32
2022/03/19 00:56:11;;;;;;;0.10;0.10;;;;;;;20.66;34.54;103900.09;5130138;27;20511;-32
2022/03/19 00:58:37;;;;;;;0.20;0.20;;;;;;;20.65;34.30;103899.25;5132546;27;20262;-33
2022/03/19 01:01:03;;;;;;;0.10;0.10;;;;;;;20.65;34.32;103893.72;5131911;27;20043;-32
2022/03/19 01:03:28;;;;;;;0.17;0.17;;;;;;;20.67;34.61;103887.94;5132911;27;20043;-31
2022/03/19 01:05:55;;;;;;;0.20;0.20;;;;;;;20.67;34.34;103887.94;5132223;27;20051;-34
2022/03/19 01:08:20;;;;;;;0.20;0.20;;;;;;;20.66;34.40;103883.50;5116913;27;20144;-32
2022/03/19 01:10:46;;;;;;;0.20;0.20;;;;;;;20.67;34.44;103882.41;5126641;27;20131;-31
2022/03/19 01:13:12;;;;;;;0.20;0.20;;;;;;;20.67;34.43;103879.66;5110100;27;20056;-34
2022/03/19 01:15:38;;;;;;;0.10;0.10;;;;;;;20.66;34.36;103880.72;5133828;27;20047;-31
2022/03/19 01:18:05;;;;;;;0.10;0.10;;;;;;;20.67;34.49;103879.66;5128970;27;20039;-33
2022/03/19 01:20:31;;;;;;;0.10;0.10;;;;;;;20.66;34.45;103883.50;5113401;27;20332;-33
2022/03/19 01:22:57;;;;;;;0.20;0.20;;;;;;;20.66;34.46;103881.56;5130074;27;20470;-32
2022/03/19 01:25:22;;;;;;;0.20;0.20;;;;;;;20.65;34.42;103873.50;5112773;27;20043;-35
2022/03/19 01:27:49;;;;;;;0.10;0.10;;;;;;;20.64;34.54;103875.41;5134423;27;20100;-35
2022/03/19 01:30:17;;;;;;;0.20;0.20;;;;;;;20.66;34.27;103884.34;5132894;27;20051;-33
2022/03/19 01:32:44;;;;;;;0.10;0.10;;;;;;;20.65;34.52;103879.03;5129782;27;20092;-33
2022/03/19 01:35:10;;;;;;;0.13;0.13;;;;;;;20.65;34.51;103879.03;5133710;27;20078;-31
2022/03/19 01:37:37;;;;;;;0.20;0.20;;;;;;;20.65;34.36;103877.09;5131175;27;20050;-31
2022/03/19 01:40:04;;;;;;;0.10;0.10;;;;;;;20.65;34.22;103882.66;5114757;27;20070;-35
2022/03/19 01:42:32;;;;;;;0.10;0.10;;;;;;;20.66;34.54;103880.72;5127628;27;20125;-31
2022/03/19 01:44:59;;;;;;;0.10;0.10;;;;;;;20.66;34.45;103873.25;5114872;27;20074;-32
2022/03/19 01:47:27;;;;;;;0.10;0.10;;;;;;;20.65;34.42;103874.34;5130386;27;20513;-34
2022/03/19 01:49:52;;;;;;;0.10;0.10;;;;;;;20.66;34.32;103872.41;5111636;27;20445;-31
2022/03/19 01:52:18;;;;;;;0.20;0.20;;;;;;;20.64;34.58;103864.34;5129426;27;20046;-32
2022/03/19 01:54:45;;;;;;;0.20;0.20;;;;;;;20.65;34.52;103865.19;5113122;27;20410;-31
2022/03/19 01:57:14;;;;;;;0.10;0.10;;;;;;;20.64;34.76;103858.81;5131931;27;20093;-32
2022/03/19 01:59:40;;;;;;;0.10;0.10;;;;;;;20.64;34.60;103863.47;5113132;27;20074;-34
2022/03/19 02:02:07;;;;;;;0.20;0.20;;;;;;;20.63;34.62;103859.84;5129834;27;20042;-34
2022/03/19 02:04:35;;;;;;;0.10;0.10;;;;;;;20.65;34.58;103859.66;5115682;27;20081;-33
2022/03/19 02:07:01;;;;;;;0.10;0.10;;;;;;;20.65;34.44;103854.09;5113052;27;20086;-32
2022/03/19 02:09:28;;;;;;;0.20;0.20;;;;;;;20.66;34.59;103855.78;5129433;27;20081;-32
2022/03/19 02:11:54;;;;;;;0.20;0.20;;;;;;;20.65;34.59;103854.09;5110477;27;20089;-31
2022/03/19 02:14:20;;;;;;;0.20;0.20;;;;;;;20.65;34.70;103860.50;5131728;27;20051;-31
2022/03/19 02:16:51;;;;;;;0.15;0.15;;;;;;;20.65;34.73;103863.25;5096687;27;20047;-33
2022/03/19 02:19:16;;;;;;;0.10;0.10;;;;;;;20.66;34.30;103864.09;5132761;27;20051;-32
2022/03/19 02:21:44;;;;;;;0.20;0.20;;;;;;;20.65;34.50;103862.41;5129170;27;20043;-31
2022/03/19 02:26:57;;;;;;;0.20;0.20;;;;;;;20.64;34.63;103853.25;5100765;27;20542;-34
2022/03/19 02:29:22;;;;;;;0.10;0.10;;;;;;;20.65;34.50;103856.88;5130489;27;20124;-34
2022/03/19 02:31:51;;;;;;;0.10;0.10;;;;;;;20.63;34.94;103845.16;5128513;27;20084;-31
2022/03/19 02:34:16;;;;;;;0.20;0.20;;;;;;;20.63;34.25;103848.78;5128055;27;20047;-31
2022/03/19 02:36:42;;;;;;;0.13;0.13;;;;;;;20.63;34.68;103839.63;5127171;27;20405;-31
2022/03/19 02:39:31;;;;;;;0.20;0.20;;;;;;;20.64;34.76;103842.19;5098698;28;20047;-32
2022/03/19 02:41:58;;;;;;;0.10;0.10;;;;;;;20.63;34.72;103846.00;5127713;27;20485;-32
2022/03/19 02:44:24;;;;;;;0.10;0.10;;;;;;;20.63;34.41;103837.69;5127902;27;20067;-33
2022/03/19 02:46:53;;;;;;;0.20;0.20;;;;;;;20.64;34.88;103838.53;5126756;27;20481;-30
2022/03/19 02:49:20;;;;;;;0.20;0.20;;;;;;;20.64;34.43;103838.53;5115294;27;20071;-31
2022/03/19 02:51:47;;;;;;;0.20;0.20;;;;;;;20.62;34.71;103832.38;5092874;27;20066;-31
2022/03/19 02:54:14;;;;;;;0.13;0.13;;;;;;;20.63;34.61;103831.31;5114322;27;20474;-30
2022/03/19 02:56:42;;;;;;;0.10;0.10;;;;;;;20.63;34.75;103831.31;5129630;27;20481;-32
2022/03/19 02:59:09;;;;;;;0.20;0.20;;;;;;;20.63;34.71;103829.38;5111789;27;20091;-31
2022/03/19 03:01:37;;;;;;;0.20;0.20;;;;;;;20.63;34.46;103823.00;5110651;27;20106;-32
2022/03/19 03:04:03;;;;;;;0.20;0.20;;;;;;;20.63;34.56;103823.00;5132143;27;20039;-32
2022/03/19 03:06:33;;;;;;;0.10;0.10;;;;;;;20.63;34.52;103823.00;5130655;27;20035;-32
2022/03/19 03:08:59;;;;;;;0.10;0.10;;;;;;;20.62;34.72;103816.63;5109266;27;20154;-31
2022/03/19 03:11:24;;;;;;;0.20;0.20;;;;;;;20.64;34.83;103810.84;5127051;27;20047;-32
2022/03/19 03:13:50;;;;;;;0.20;0.20;;;;;;;20.62;34.60;103811.09;5128432;27;20424;-32
2022/03/19 03:16:17;;;;;;;0.20;0.20;;;;;;;20.63;34.87;103809.16;5129281;27;20046;-30
2022/03/19 03:18:43;;;;;;;0.20;0.20;;;;;;;20.62;34.77;103813.84;5127970;27;20064;-31
2022/03/19 03:21:08;;;;;;;0.20;0.20;;;;;;;20.62;34.64;103813.00;5108910;28;20047;-32
2022/03/19 03:23:34;;;;;;;0.10;0.10;;;;;;;20.62;34.46;103816.63;5127996;27;20043;-31
2022/03/19 03:26:00;;;;;;;0.10;0.10;;;;;;;20.63;34.77;103814.69;5113553;27;20046;-31
2022/03/19 03:28:27;;;;;;;0.10;0.10;;;;;;;20.62;34.62;103815.78;5125874;27;20043;-34
2022/03/19 03:30:53;;;;;;;0.10;0.10;;;;;;;20.62;34.77;103813.00;5129928;27;20063;-31
2022/03/19 03:33:19;;;;;;;0.13;0.13;;;;;;;20.62;34.60;103811.09;5131050;27;20057;-31
2022/03/19 03:35:45;;;;;;;0.20;0.20;;;;;;;20.61;34.72;103814.94;5115902;27;20109;-31
2022/03/19 03:38:11;;;;;;;0.20;0.20;;;;;;;20.62;34.72;103813.00;5113078;27;20051;-32
2022/03/19 03:40:37;;;;;;;0.20;0.20;;;;;;;20.62;34.43;103813.84;5131541;27;20039;-31
2022/03/19 03:43:03;;;;;;;0.20;0.20;;;;;;;20.61;34.65;103817.69;5131903;27;20066;-32
2022/03/19 03:45:29;;;;;;;0.20;0.20;;;;;;;20.61;34.62;103814.09;5134119;27;20043;-31
2022/03/19 03:47:55;;;;;;;0.20;0.20;;;;;;;20.62;34.79;103811.09;5136603;27;20050;-31
2022/03/19 03:50:21;;;;;;;0.10;0.10;;;;;;;20.61;34.69;103812.16;5128189;27;20389;-32
2022/03/19 03:52:47;;;;;;;0.20;0.20;;;;;;;20.60;34.94;103807.69;5132020;27;20281;-31
2022/03/19 03:55:13;;;;;;;0.20;0.20;;;;;;;20.61;34.53;103803.84;5127962;27;20121;-33
2022/03/19 03:57:39;;;;;;;0.20;0.20;;;;;;;20.61;34.69;103800.25;5132432;27;20597;-32
2022/03/19 04:00:08;;;;;;;0.15;0.15;;;;;;;20.60;34.64;103802.16;5132145;27;20095;-32
2022/03/19 04:02:34;;;;;;;0.20;0.20;;;;;;;20.61;34.78;103806.63;5138594;27;20585;-34
2022/03/19 04:05:00;;;;;;;0.20;0.20;;;;;;;20.61;34.69;103811.31;5138431;27;20117;-30
2022/03/19 04:07:27;;;;;;;0.10;0.10;;;;;;;20.61;34.69;103803.00;5134391;27;20062;-32
2022/03/19 04:09:53;;;;;;;0.20;0.20;;;;;;;20.61;34.73;103803.00;5130975;27;20078;-32
2022/03/19 04:12:19;;;;;;;0.20;0.20;;;;;;;20.61;34.79;103792.78;5132565;27;20103;-32
2022/03/19 04:14:45;;;;;;;0.20;0.20;;;;;;;20.61;34.61;103789.16;5131590;27;20067;-33
2022/03/19 04:17:10;;;;;;;0.20;0.20;;;;;;;20.60;34.40;103793.00;5134835;27;20446;-32
2022/03/19 04:19:36;;;;;;;0.20;0.20;;;;;;;20.60;34.85;103796.63;5134870;27;20289;-32
2022/03/19 04:22:02;;;;;;;0.20;0.20;;;;;;;20.60;34.68;103795.78;5130630;27;20039;-32
2022/03/19 04:24:28;;;;;;;0.10;0.10;;;;;;;20.59;34.49;103786.59;5133222;27;20039;-31
2022/03/19 04:26:53;;;;;;;0.20;0.20;;;;;;;20.61;34.84;103791.94;5133092;27;20063;-29
2022/03/19 04:29:19;;;;;;;0.20;0.20;;;;;;;20.60;34.73;103788.31;5136297;27;20057;-31
2022/03/19 04:31:44;;;;;;;0.17;0.17;;;;;;;20.59;34.61;103791.28;5129618;27;20043;-33
2022/03/19 04:34:10;;;;;;;0.20;0.20;;;;;;;20.60;34.71;103785.53;5131638;27;20064;-31
2022/03/19 04:36:37;;;;;;;0.20;0.20;;;;;;;20.59;34.82;103789.38;5128965;27;20050;-32
2022/03/19 04:39:04;;;;;;;0.20;0.20;;;;;;;20.59;34.79;103783.81;5132468;27;20089;-31
2022/03/19 04:41:31;;;;;;;0.20;0.20;;;;;;;20.60;34.78;103787.47;5109804;27;20077;-34
2022/03/19 04:43:56;;;;;;;0.20;0.20;;;;;;;20.59;34.77;103786.59;5133266;27;20405;-32
2022/03/19 04:46:22;;;;;;;0.10;0.10;;;;;;;20.58;34.69;103792.38;5128998;27;20493;-31
2022/03/19 04:48:48;;;;;;;0.20;0.20;;;;;;;20.58;34.94;103787.66;5131776;27;20035;-32
2022/03/19 04:51:17;;;;;;;0.20;0.20;;;;;;;20.58;34.86;103787.66;5127628;27;20453;-31
2022/03/19 04:53:42;;;;;;;;;;;;;;;20.59;34.89;103796.81;5131402;27;20142;-34
2022/03/19 04:56:08;;;;;;;0.20;0.20;;;;;;;20.59;34.64;103788.53;5108998;27;19942;-34
2022/03/19 04:58:34;;;;;;;0.13;0.13;;;;;;;20.59;34.73;103785.75;5098800;27;20043;-31
2022/03/19 05:01:00;;;;;;;0.15;0.15;;;;;;;20.58;34.69;103787.66;5137091;27;20604;-35
2022/03/19 05:03:26;;;;;;;0.10;0.10;;;;;;;20.59;34.53;103794.06;5137000;27;20040;-32
2022/03/19 05:05:52;;;;;;;0.15;0.15;;;;;;;20.59;34.66;103785.75;5132622;27;20078;-32
2022/03/19 05:08:18;;;;;;;0.20;0.20;;;;;;;20.58;34.49;103787.66;5134951;27;20396;-33
2022/03/19 05:11:17;;;;;;;0.20;0.20;;;;;;;20.59;34.56;103797.66;5127371;27;20099;-33
2022/03/19 05:13:29;;;;;;;0.20;0.20;;;;;;;20.59;34.62;103799.59;5114941;27;20370;-31
2022/03/19 05:15:55;;;;;;;0.20;0.20;;;;;;;20.59;34.75;103799.59;5131726;27;20043;-35
2022/03/19 05:18:21;;;;;;;0.13;0.13;;;;;;;20.58;34.99;103800.66;5127334;27;20057;-31
2022/03/19 05:20:47;;;;;;;0.20;0.20;;;;;;;20.58;34.66;103798.75;5126517;27;20074;-31
2022/03/19 05:23:12;;;;;;;0.20;0.20;;;;;;;20.59;34.71;103796.81;5110182;27;20489;-34
2022/03/19 05:25:39;;;;;;;0.13;0.13;;;;;;;20.59;34.71;103796.81;5127934;27;21219;-32
2022/03/19 05:28:05;;;;;;;0.20;0.20;;;;;;;20.58;34.71;103793.22;5131415;27;20566;-33
2022/03/19 05:30:49;;;;;;;0.20;0.20;;;;;;;20.58;34.55;103787.66;5128183;27;20049;-31
2022/03/19 05:33:15;;;;;;;0.20;0.20;;;;;;;20.57;34.72;103791.53;5110654;28;20043;-32
2022/03/19 05:35:42;;;;;;;0.20;0.20;;;;;;;20.58;34.98;103800.66;5128239;27;20051;-31
2022/03/19 05:38:08;;;;;;;0.20;0.20;;;;;;;20.57;34.79;103802.59;5130003;27;20130;-31
2022/03/19 05:40:34;;;;;;;0.20;0.20;;;;;;;20.57;34.76;103797.06;5109714;27;20539;-31
2022/03/19 05:43:00;;;;;;;0.20;0.20;;;;;;;20.56;34.90;103806.44;5109148;27;20502;-33
2022/03/19 05:45:26;;;;;;;0.20;0.20;;;;;;;20.57;34.73;103805.38;5111820;27;20043;-32
2022/03/19 05:47:52;;;;;;;0.20;0.20;;;;;;;20.57;34.76;103805.38;5129954;27;20046;-32
2022/03/19 05:50:18;;;;;;;0.10;0.10;;;;;;;20.57;34.95;103810.06;5124364;27;20508;-31
2022/03/19 05:52:45;;;;;;;0.20;0.20;;;;;;;20.56;34.78;103802.81;5110746;27;20063;-31
2022/03/19 05:55:11;;;;;;;0.20;0.20;;;;;;;20.56;34.62;103811.13;5111484;27;20473;-31
2022/03/19 05:57:37;;;;;;;0.13;0.13;;;;;;;20.57;35.03;103807.28;5134285;27;20137;-32
2022/03/19 06:00:04;;;;;;;0.20;0.20;;;;;;;20.57;34.88;103810.91;5127443;27;20046;-31
2022/03/19 06:02:29;;;;;;;0.10;0.10;;;;;;;20.57;34.79;103812.81;5130085;27;20070;-31
2022/03/19 06:04:55;;;;;;;0.20;0.20;;;;;;;20.58;34.89;103803.44;5134544;27;20066;-34
2022/03/19 06:07:21;;;;;;;0.10;0.10;;;;;;;20.56;34.71;103811.13;5129661;27;20042;-34
2022/03/19 06:09:46;;;;;;;0.20;0.20;;;;;;;20.56;34.92;103808.38;5129748;27;20038;-33
2022/03/19 06:12:12;;;;;;;0.20;0.20;;;;;;;20.57;34.73;103807.28;5108663;27;20410;-31
2022/03/19 06:14:38;;;;;;;0.20;0.20;;;;;;;20.56;34.82;103816.66;5128213;27;20035;-31
2022/03/19 06:17:04;;;;;;;0.10;0.10;;;;;;;20.57;34.98;103812.81;5126741;27;20051;-31
2022/03/19 06:19:30;;;;;;;0.20;0.20;;;;;;;20.57;34.91;103810.06;5129790;27;20062;-31
2022/03/19 06:21:55;;;;;;;0.20;0.20;;;;;;;20.56;35.05;103814.75;5129382;27;20178;-31
2022/03/19 06:24:23;;;;;;;0.20;0.20;;;;;;;20.56;34.76;103813.91;5130262;27;20055;-31
2022/03/19 06:26:50;;;;;;;0.10;0.10;;;;;;;20.56;34.81;103813.91;5114020;27;20470;-32
2022/03/19 06:29:16;;;;;;;0.10;0.10;;;;;;;20.55;34.76;103801.94;5129893;27;20062;-33
2022/03/19 06:31:41;;;;;;;0.20;0.20;;;;;;;20.56;34.63;103806.44;5132216;27;20465;-31
2022/03/19 06:34:07;;;;;;;0.10;0.10;;;;;;;20.56;34.81;103808.38;5130071;27;20046;-33
2022/03/19 06:39:18;;;;;;;0.20;0.20;;;;;;;20.56;35.07;103808.38;5115021;27;20089;-32
2022/03/19 06:41:44;;;;;;;0.20;0.20;;;;;;;20.53;34.76;103809.66;5128701;27;20412;-31
2022/03/19 06:44:10;;;;;;;0.20;0.20;;;;;;;20.55;34.70;103813.03;5125385;27;20074;-31
2022/03/19 06:46:35;;;;;;;0.10;0.10;;;;;;;20.53;34.73;103817.94;5131539;27;20065;-32
2022/03/19 06:49:01;;;;;;;0.20;0.20;;;;;;;20.53;34.89;103809.66;5128785;27;20053;-33
2022/03/19 06:51:27;;;;;;;0.10;0.10;;;;;;;20.54;34.97;103803.03;5123528;27;20113;-32
2022/03/19 06:53:53;;;;;;;0.20;0.20;;;;;;;20.52;34.91;103808.78;5131430;27;20055;-31
2022/03/19 06:56:18;;;;;;;0.20;0.20;;;;;;;20.53;34.77;103809.66;5126397;27;20066;-31
2022/03/19 06:58:44;;;;;;;0.20;0.20;;;;;;;20.53;34.80;103807.72;5129429;27;20035;-33
2022/03/19 07:01:15;;;;;;;0.20;0.20;;;;;;;20.53;34.91;103804.94;5133307;27;20050;-33
2022/03/19 07:03:43;;;;;;;0.15;0.15;;;;;;;20.53;35.06;103801.34;5136055;27;20339;-34
2022/03/19 07:06:08;;;;;;;0.20;0.20;;;;;;;20.53;34.81;103806.88;5142848;27;20066;-35
2022/03/19 07:08:54;;;;;;;0.20;0.20;;;;;;;20.54;35.04;103803.03;5113965;27;20036;-31
2022/03/19 07:11:19;;;;;;;0.20;0.20;;;;;;;20.52;34.75;103814.34;5133990;27;20054;-34
2022/03/19 07:13:45;;;;;;;0.13;0.13;;;;;;;20.53;35.00;103810.47;5134148;27;20061;-35
2022/03/19 07:16:12;;;;;;;0.10;0.10;;;;;;;20.52;34.73;103808.78;5130800;27;20462;-32
2022/03/19 07:18:37;;;;;;;0.10;0.10;;;;;;;20.53;34.71;103813.25;5135270;27;20134;-32
2022/03/19 07:21:03;;;;;;;0.20;0.20;;;;;;;20.52;35.02;103808.78;5135473;27;20389;-32
2022/03/19 07:23:29;;;;;;;0.20;0.20;;;;;;;20.53;34.90;103806.88;5132828;27;20043;-32
2022/03/19 07:25:59;;;;;;;0.20;0.20;;;;;;;20.53;34.74;103810.47;5114328;27;20413;-34
2022/03/19 07:28:26;;;;;;;0.20;0.20;;;;;;;20.52;34.88;103806.03;5133788;27;20086;-32
2022/03/19 07:30:52;;;;;;;0.20;0.20;;;;;;;20.53;34.53;103812.41;5131013;27;20089;-32
2022/03/19 07:33:17;;;;;;;0.20;0.20;;;;;;;20.52;35.09;103800.50;5112704;27;20043;-31
2022/03/19 07:35:43;;;;;;;0.20;0.20;;;;;;;20.52;34.84;103802.41;5132289;27;20413;-32
2022/03/19 07:38:11;;;;;;;0.20;0.20;;;;;;;20.53;34.84;103804.09;5133923;27;20474;-32
2022/03/19 07:43:24;;;;;;;0.10;0.10;;;;;;;20.53;34.91;103795.81;5115028;27;20131;-32
2022/03/19 07:45:50;;;;;;;0.20;0.20;;;;;;;20.51;34.81;103784.97;5099255;27;20082;-31
2022/03/19 07:48:16;;;;;;;0.10;0.10;;;;;;;20.52;35.09;103789.41;5114910;27;20397;-31
2022/03/19 07:50:53;;;;;;;0.15;0.15;;;;;;;20.51;34.73;103790.50;5130726;27;20401;-32
2022/03/19 07:53:19;;;;;;;0.20;0.20;;;;;;;20.51;35.04;103786.88;5133418;27;20138;-32
2022/03/19 07:55:45;;;;;;;0.10;0.10;;;;;;;20.52;34.78;103783.03;5130974;27;20082;-35
2022/03/19 07:58:15;;;;;;;0.10;0.10;;;;;;;20.52;34.73;103783.03;5131682;27;20043;-33
2022/03/19 08:00:41;;;;;;;0.10;0.10;;;;;;;20.51;34.79;103786.88;5133651;27;20446;-31
2022/03/19 08:03:07;;;;;;;0.20;0.20;;;;;;;20.51;35.06;103784.97;5132819;27;20434;-33
2022/03/19 08:05:33;;;;;;;0.15;0.15;;;;;;;20.51;34.90;103781.34;5133664;27;20405;-33
2022/03/19 08:07:58;;;;;;;0.20;0.20;;;;;;;20.51;35.21;103781.34;5133098;27;20105;-31
2022/03/19 08:10:24;;;;;;;0.20;0.20;;;;;;;20.51;35.14;103782.19;5127988;27;20711;-32
2022/03/19 08:13:01;;;;;;;0.20;0.20;;;;;;;20.51;35.02;103779.41;5133736;27;20135;-31
2022/03/19 08:15:27;;;;;;;0.20;0.20;;;;;;;20.52;35.10;103778.34;5112747;27;20074;-32
2022/03/19 08:17:53;;;;;;;0.20;0.20;;;;;;;20.52;34.93;103771.97;5133187;27;20070;-30
2022/03/19 08:20:18;;;;;;;0.20;0.20;;;;;;;20.50;35.06;103774.94;5129596;27;21738;-31
2022/03/19 08:22:44;;;;;;;0.20;0.20;;;;;;;20.51;34.70;103773.88;5130237;27;20047;-31
2022/03/19 08:25:18;;;;;;;0.20;0.20;;;;;;;20.52;35.10;103777.50;5130594;27;20047;-31
2022/03/19 08:27:43;;;;;;;0.20;0.20;;;;;;;20.51;35.14;103782.19;5131588;27;20045;-31
2022/03/19 08:30:09;;;;;;;0.20;0.20;;;;;;;20.50;34.80;103783.22;5129689;27;20390;-32
2022/03/19 08:32:35;;;;;;;0.10;0.10;;;;;;;20.50;35.18;103774.09;5109004;27;20131;-34
2022/03/19 08:35:00;;;;;;;0.10;0.10;;;;;;;20.50;34.85;103771.31;5131211;27;20051;-32
2022/03/19 08:37:26;;;;;;;0.10;0.10;;;;;;;20.50;34.80;103766.63;5130273;27;20093;-33
2022/03/19 08:40:28;;;;;;;0.10;0.10;;;;;;;20.52;34.92;103777.50;5130258;27;20092;-32
2022/03/19 08:42:39;;;;;;;0.10;0.10;;;;;;;20.50;35.08;103769.41;5084621;27;20070;-32
2022/03/19 08:45:06;;;;;;;0.20;0.20;;;;;;;20.51;35.06;103765.56;5130519;27;20084;-32
2022/03/19 08:47:31;;;;;;;0.20;0.20;;;;;;;20.50;34.76;103757.47;5110705;27;20430;-31
2022/03/19 08:49:57;;;;;;;0.20;0.20;;;;;;;20.50;34.90;103765.78;5128698;27;21153;-32
2022/03/19 08:52:23;;;;;;;0.20;0.20;;;;;;;20.50;35.06;103765.78;5132014;27;20047;-31
2022/03/19 08:54:48;;;;;;;0.20;0.20;;;;;;;20.49;34.75;103762.16;5111159;27;20114;-33
2022/03/19 08:57:14;;;;;;;0.10;0.10;;;;;;;20.50;34.96;103761.09;5129316;27;20051;-30
2022/03/19 08:59:42;;;;;;;0.10;0.10;;;;;;;20.50;34.94;103763.00;5129651;27;20049;-33
2022/03/19 09:02:28;;;;;;;0.20;0.20;;;;;;;20.49;35.07;103762.16;5116699;27;20175;-34
2022/03/19 09:04:53;;;;;;;0.20;0.20;;;;;;;20.50;34.91;103757.47;5132156;27;20083;-31
2022/03/19 09:07:19;;;;;;;0.20;0.20;;;;;;;20.50;34.73;103758.31;5131435;27;20045;-33
2022/03/19 09:09:45;;;;;;;0.20;0.20;;;;;;;20.51;34.87;103753.66;5134312;27;20446;-32
2022/03/19 09:12:31;;;;;;;0.13;0.13;;;;;;;20.50;35.12;103757.47;5097970;27;20268;-31
2022/03/19 09:14:56;;;;;;;0.17;0.17;;;;;;;20.49;34.90;103756.63;5128768;27;20051;-32
2022/03/19 09:17:22;;;;;;;0.20;0.20;;;;;;;20.49;34.97;103744.72;5132100;27;20042;-32
2022/03/19 09:19:48;;;;;;;0.20;0.20;;;;;;;20.48;34.84;103743.88;5125510;27;20035;-32
2022/03/19 09:22:14;;;;;;;0.20;0.20;;;;;;;20.49;34.86;103739.16;5127787;27;20070;-31
2022/03/19 09:24:40;;;;;;;0.20;0.20;;;;;;;20.49;34.90;103739.16;5091631;27;20043;-31
2022/03/19 09:27:05;;;;;;;0.20;0.20;;;;;;;20.50;35.11;103732.56;5111708;27;20059;-31
2022/03/19 09:29:31;;;;;;;0.13;0.13;;;;;;;20.50;35.09;103729.78;5130111;27;20039;-31
2022/03/19 09:31:57;;;;;;;0.20;0.20;;;;;;;20.49;34.95;103725.31;5127635;27;20051;-32
2022/03/19 09:34:23;;;;;;;0.10;0.10;;;;;;;20.49;34.87;103733.63;5128470;27;20063;-32
2022/03/19 09:36:48;;;;;;;0.17;0.17;;;;;;;20.48;34.93;103718.94;5124743;27;20271;-31
2022/03/19 09:39:15;;;;;;;0.20;0.20;;;;;;;20.48;34.92;103709.81;5126832;27;20054;-34
2022/03/19 09:41:42;;;;;;;0.10;0.10;;;;;;;20.49;35.01;103701.25;5125020;27;20116;-32
2022/03/19 09:44:09;;;;;;;0.10;0.10;;;;;;;20.49;34.91;103717.88;5128152;27;20328;-32
2022/03/19 09:46:35;;;;;;;0.15;0.15;;;;;;;20.48;35.04;103709.81;5127919;27;20065;-33
2022/03/19 09:49:01;;;;;;;0.20;0.20;;;;;;;20.49;35.10;103692.97;5126783;27;20089;-32
2022/03/19 09:51:27;;;;;;;0.20;0.20;;;;;;;20.49;34.88;103695.72;5126592;27;20035;-33
2022/03/19 09:53:54;;;;;;;0.20;0.20;;;;;;;20.49;34.87;103694.88;5127780;27;20495;-32
2022/03/19 09:56:29;;;;;;;0.20;0.20;;;;;;;20.49;35.15;103689.34;5097511;27;20050;-32
2022/03/19 09:58:55;;;;;;;0.10;0.10;;;;;;;20.49;34.84;103694.88;5133015;27;20086;-31
2022/03/19 10:01:21;;;;;;;0.20;0.20;;;;;;;20.49;34.83;103681.88;5131622;27;20065;-30
2022/03/19 10:03:48;;;;;;;0.10;0.10;;;;;;;20.50;35.25;103682.72;5131892;27;20478;-32
2022/03/19 10:09:02;;;;;;;0.20;0.20;;;;;;;20.48;34.99;103674.66;5114173;27;20104;-32
2022/03/19 10:11:33;;;;;;;0.20;0.20;;;;;;;20.48;35.11;103657.19;5122324;27;20054;-31
2022/03/19 10:14:04;;;;;;;0.20;0.20;;;;;;;20.48;34.96;103655.28;5127974;27;20430;-32
2022/03/19 10:16:29;;;;;;;0.20;0.20;;;;;;;20.48;35.05;103651.66;5106363;28;20118;-31
2022/03/19 10:18:58;;;;;;;0.20;0.20;;;;;;;20.48;35.05;103654.44;5129963;27;20065;-33
2022/03/19 10:21:25;;;;;;;0.20;0.20;;;;;;;20.49;34.86;103653.34;5127809;27;20104;-33
2022/03/19 10:23:51;;;;;;;0.20;0.20;;;;;;;20.49;35.08;103645.91;5125278;27;20496;-33
2022/03/19 10:26:34;;;;;;;0.20;0.20;;;;;;;20.48;34.89;103638.66;5108395;27;20466;-32
2022/03/19 10:31:46;;;;;;;0.20;0.20;;;;;;;20.49;35.16;103636.75;5161525;27;20720;-30
2022/03/19 10:34:13;;;;;;;0.20;0.20;;;;;;;20.49;35.18;103636.75;5158780;27;20277;-32
2022/03/19 10:36:42;;;;;;;0.20;0.20;;;;;;;20.49;35.10;103631.22;5157308;27;20080;-29
2022/03/19 10:39:25;;;;;;;0.20;0.20;;;;;;;20.48;35.09;103629.53;5139018;27;20134;-29
2022/03/19 10:41:51;;;;;;;0.20;0.20;;;;;;;20.49;35.08;103625.66;5123725;27;20134;-29
2022/03/19 10:44:22;;;;;;;0.20;0.20;;;;;;;20.48;34.99;103629.53;5156538;27;20121;-29
2022/03/19 10:46:53;;;;;;;0.20;0.20;;;;;;;20.49;35.01;103623.75;5159078;27;20093;-29
2022/03/19 10:49:21;;;;;;;0.20;0.20;;;;;;;20.48;35.18;103627.59;5145572;27;20082;-30
2022/03/19 10:51:50;;;;;;;0.13;0.13;;;;;;;20.49;34.90;103617.38;5143613;27;20053;-29
2022/03/19 10:54:16;;;;;;;0.10;0.10;;;;;;;20.48;34.94;103612.91;5144312;27;20042;-29
2022/03/19 10:56:43;;;;;;;0.20;0.20;;;;;;;20.49;34.94;103612.69;5144464;27;20198;-29
2022/03/19 10:59:09;;;;;;;0.20;0.20;;;;;;;20.49;35.21;103607.13;5129121;27;20085;-29
2022/03/19 11:01:36;;;;;;;0.20;0.20;;;;;;;20.49;35.10;103600.75;5166174;27;20034;-29
2022/03/19 11:04:04;;;;;;;0.20;0.20;;;;;;;20.49;35.02;103607.13;5163265;27;20049;-30
2022/03/19 11:06:37;;;;;;;0.20;0.20;;;;;;;20.49;35.18;103606.28;5166154;27;20278;-29
2022/03/19 11:09:06;;;;;;;0.20;0.20;;;;;;;20.49;34.96;103598.84;5163408;27;20078;-29
2022/03/19 11:11:43;;;;;;;0.20;0.20;;;;;;;20.50;34.90;103585.84;5162296;27;20457;-30
2022/03/19 11:14:10;;;;;;;0.20;0.20;;;;;;;20.48;35.03;103582.47;5162258;27;20081;-32
2022/03/19 11:16:37;;;;;;;0.20;0.20;;;;;;;20.49;34.96;103586.91;5161020;27;20122;-33
2022/03/19 11:19:04;;;;;;;0.20;0.20;;;;;;;20.49;34.92;103578.63;5161612;27;20050;-31
2022/03/19 11:21:32;;;;;;;0.10;0.10;;;;;;;20.50;34.83;103577.53;5161071;27;20082;-32
2022/03/19 11:24:08;;;;;;;0.10;0.10;;;;;;;20.49;35.07;103568.38;5163223;27;20465;-32
2022/03/19 11:26:34;;;;;;;0.20;0.20;;;;;;;20.47;35.10;103567.75;5162083;27;20448;-31
2022/03/19 11:29:00;;;;;;;0.20;0.20;;;;;;;20.49;34.97;103562.00;5163088;27;20092;-32
2022/03/19 11:31:29;;;;;;;0.20;0.20;;;;;;;20.48;34.94;103563.09;5164810;27;20054;-33
2022/03/19 11:33:59;;;;;;;0.20;0.20;;;;;;;20.49;35.08;103545.41;5164250;27;20053;-33
2022/03/19 11:36:25;;;;;;;0.20;0.20;;;;;;;20.49;35.19;103546.25;5158721;27;20081;-32